Time;durP1;ratioP1;P1;durP2;ratioP2;P2;SDS_P1;SDS_P2;PMS_P1;PMS_P2;Temp;Humidity;BMP_temperature;BMP_pressure;BME280_temperature;BME280_humidity;BME280_pressure;Samples;Min_cycle;Max_cycle;Signal;HPM_P1;HPM_P2
2022/11/19 00:00:37;;;;;;;;;5.00;5.00;;;;;10.65;64.69;100531.81;5119099;27;45207;-72
2022/11/19 00:03:03;;;;;;;;;8.00;8.00;;;;;10.16;63.97;100452.47;5099798;27;48429;-74
2022/11/19 00:05:28;;;;;;;;;8.33;7.67;;;;;9.60;63.79;100363.16;5099459;27;45251;-73
2022/11/19 00:07:53;;;;;;;;;8.33;7.33;;;;;10.63;64.57;100535.59;5116034;27;45323;-73
2022/11/19 00:10:19;;;;;;;;;6.67;5.33;;;;;10.59;64.45;100523.56;5114913;27;45288;-73
2022/11/19 00:12:53;;;;;;;;;7.33;7.33;;;;;10.47;64.42;100525.63;5095843;27;45711;-73
2022/11/19 00:15:19;;;;;;;;;9.00;7.33;;;;;8.74;64.29;100228.13;5096666;27;45359;-72
2022/11/19 00:17:45;;;;;;;;;6.00;6.00;;;;;10.27;64.60;100484.19;5080107;27;45387;-74
2022/11/19 00:20:10;;;;;;;;;5.00;5.00;;;;;10.18;64.18;100480.56;5099428;27;45459;-72
2022/11/19 00:22:35;;;;;;;;;6.67;5.67;;;;;10.54;64.40;100550.63;5098224;27;45531;-73
2022/11/19 00:25:01;;;;;;;;;7.00;6.67;;;;;10.54;64.28;100555.94;5080951;27;46104;-71
2022/11/19 00:27:26;;;;;;;;;7.00;5.33;;;;;10.44;64.36;100523.25;5098333;27;45506;-71
2022/11/19 00:29:51;;;;;;;;;5.67;5.67;;;;;10.06;64.49;100455.19;5097706;27;45315;-73
2022/11/19 00:32:17;;;;;;;;;11.00;10.00;;;;;9.91;64.98;100428.28;5100182;27;47007;-75
2022/11/19 00:34:42;;;;;;;;;7.00;6.00;;;;;10.47;64.45;100520.31;5100866;27;45319;-72
2022/11/19 00:37:08;;;;;;;;;7.00;6.33;;;;;9.34;64.86;100334.66;5101039;27;45424;-72
2022/11/19 00:39:33;;;;;;;;;5.67;4.67;;;;;10.45;64.97;100524.94;5101590;27;45502;-72
2022/11/19 00:41:59;;;;;;;;;5.00;5.00;;;;;10.39;64.71;100517.53;5082317;27;47158;-72
2022/11/19 00:44:24;;;;;;;;;8.33;7.00;;;;;10.39;64.38;100511.38;5082106;27;45410;-74
2022/11/19 00:46:50;;;;;;;;;6.67;5.67;;;;;9.63;64.54;100389.44;5100867;27;45522;-72
2022/11/19 00:49:15;;;;;;;;;8.00;7.00;;;;;10.15;64.97;100478.19;5082172;27;45616;-73
2022/11/19 00:51:41;;;;;;;;;6.00;6.00;;;;;10.22;65.36;100497.94;5100658;27;46024;-71
2022/11/19 00:54:06;;;;;;;;;6.00;6.00;;;;;9.85;65.09;100444.81;5100993;27;45515;-72
2022/11/19 00:56:31;;;;;;;;;6.67;6.33;;;;;10.40;65.30;100540.47;5102480;27;45316;-72
2022/11/19 00:58:57;;;;;;;;;7.33;7.33;;;;;10.31;65.35;100536.88;5082966;27;45569;-71
2022/11/19 01:01:24;;;;;;;;;5.00;5.00;;;;;10.33;65.24;100520.78;5100603;27;45348;-72
2022/11/19 01:03:50;;;;;;;;;6.67;6.00;;;;;10.37;65.91;100540.75;5100841;27;45208;-72
2022/11/19 01:06:18;;;;;;;;;6.00;6.00;;;;;10.34;65.61;100541.06;5082037;27;45499;-71
2022/11/19 01:08:44;;;;;;;;;8.33;6.33;;;;;10.26;65.49;100517.06;5082551;27;45367;-71
2022/11/19 01:11:16;;;;;;;;;10.00;6.67;;;;;9.65;65.44;100416.69;5099892;27;46345;-72
2022/11/19 01:13:41;;;;;;;;;6.67;5.33;;;;;10.33;65.61;100547.38;5081998;27;45478;-73
2022/11/19 01:16:10;;;;;;;;;6.00;6.00;;;;;10.38;65.33;100541.59;5101033;27;45285;-76
2022/11/19 01:18:37;;;;;;;;;8.33;7.00;;;;;10.34;65.55;100541.06;5099939;27;45875;-72
2022/11/19 01:21:05;;;;;;;;;8.00;8.00;;;;;9.25;65.05;100366.53;5100054;27;46719;-73
2022/11/19 01:23:30;;;;;;;;;7.00;6.00;;;;;10.13;65.54;100508.56;5081551;27;45333;-72
2022/11/19 01:25:56;;;;;;;;;9.00;5.67;;;;;9.99;65.52;100494.75;5083260;27;45364;-71
2022/11/19 01:28:21;;;;;;;;;11.67;9.33;;;;;10.24;65.73;100540.28;5101720;27;45335;-74
2022/11/19 01:30:47;;;;;;;;;8.33;7.67;;;;;9.87;66.01;100524.31;5099687;27;45648;-72
2022/11/19 01:33:12;;;;;;;;;7.00;7.00;;;;;10.18;65.70;100541.66;5081449;27;45396;-72
2022/11/19 01:35:38;;;;;;;;;7.33;7.33;;;;;9.92;65.56;100496.34;5100437;27;45514;-72
2022/11/19 01:38:04;;;;;;;;;6.00;5.33;;;;;10.22;65.61;100560.84;5100547;27;45350;-72
2022/11/19 01:40:30;;;;;;;;;12.33;8.67;;;;;9.73;65.65;100493.75;5100435;27;45686;-74
2022/11/19 01:42:55;;;;;;;;;10.00;8.00;;;;;10.19;66.02;100563.75;5098402;27;45371;-73
2022/11/19 01:45:31;;;;;;;;;6.00;6.00;;;;;10.17;66.19;100571.03;5098544;27;45366;-72
2022/11/19 01:48:23;;;;;;;;;6.67;6.67;;;;;10.15;65.95;100573.84;5099265;27;45267;-73
2022/11/19 01:50:54;;;;;;;;;6.33;6.00;;;;;10.15;66.01;100567.69;5080945;27;46289;-73
2022/11/19 01:53:24;;;;;;;;;10.00;7.33;;;;;10.12;66.19;100563.50;5099968;27;45255;-73
2022/11/19 01:55:50;;;;;;;;;7.00;7.00;;;;;10.13;65.98;100569.66;5101160;27;45378;-73
2022/11/19 01:58:19;;;;;;;;;5.00;5.00;;;;;9.84;65.93;100520.13;5100347;27;45299;-71
2022/11/19 02:00:46;;;;;;;;;9.00;8.33;;;;;10.12;65.77;100566.16;5099606;27;45746;-71
2022/11/19 02:03:12;;;;;;;;;7.33;6.00;;;;;10.07;65.95;100555.97;5099188;27;45452;-72
2022/11/19 02:05:40;;;;;;;;;11.33;5.33;;;;;10.10;65.96;100570.78;5098947;27;45474;-73
2022/11/19 02:08:08;;;;;;;;;5.67;5.33;;;;;9.91;65.70;100545.13;5099211;27;45534;-72
2022/11/19 02:10:49;;;;;;;;;9.00;7.67;;;;;9.69;65.87;100505.66;5098618;27;45798;-71
2022/11/19 02:13:31;;;;;;;;;8.00;5.00;;;;;10.06;65.83;100564.09;5098898;27;45521;-73
2022/11/19 02:16:05;;;;;;;;;10.67;8.67;;;;;9.59;65.47;100496.84;5099848;27;45683;-71
2022/11/19 02:18:48;;;;;;;;;7.00;5.33;;;;;8.97;65.87;100400.09;5095011;27;45690;-72
2022/11/19 02:21:42;;;;;;;;;7.00;6.00;;;;;10.02;65.78;100568.88;5119084;27;46992;-69
2022/11/19 02:24:36;;;;;;;;;5.00;5.00;;;;;10.00;65.47;100562.84;5119225;27;45324;-71
2022/11/19 02:27:23;;;;;;;;;6.67;6.67;;;;;9.04;65.90;100406.53;5100888;27;45289;-72
2022/11/19 02:30:02;;;;;;;;;6.00;4.67;;;;;9.97;66.03;100564.94;5119260;27;45380;-73
2022/11/19 02:32:32;;;;;;;;;6.00;4.33;;;;;9.44;65.98;100477.91;5100880;27;47571;-72
2022/11/19 02:35:05;;;;;;;;;9.00;8.33;;;;;9.94;66.08;100573.19;5120048;27;45275;-73
2022/11/19 02:37:53;;;;;;;;;12.00;8.00;;;;;9.92;66.36;100565.38;5100690;27;45347;-72
2022/11/19 02:40:23;;;;;;;;;9.33;7.33;;;;;9.90;66.77;100564.69;5098321;27;45732;-71
2022/11/19 02:43:25;;;;;;;;;9.00;8.00;;;;;9.92;66.67;100565.38;5098302;27;45451;-72
2022/11/19 02:46:13;;;;;;;;;6.67;5.33;;;;;9.92;66.53;100567.22;5045144;27;45243;-70
2022/11/19 02:48:44;;;;;;;;;5.00;5.00;;;;;9.60;67.01;100509.97;5098277;27;45359;-72
2022/11/19 02:51:11;;;;;;;;;4.00;4.00;;;;;9.73;66.59;100530.91;5099083;27;45174;-73
2022/11/19 02:53:37;;;;;;;;;8.00;7.00;;;;;9.10;66.76;100422.69;5098144;27;45503;-73
2022/11/19 02:56:46;;;;;;;;;5.33;4.33;;;;;9.96;66.62;100563.28;5098717;27;45458;-73
2022/11/19 03:04:47;;;;;;;;;7.00;6.33;;;;;9.52;67.02;100488.66;5097985;27;45803;-73
2022/11/19 03:07:17;;;;;;;;;6.67;5.33;;;;;9.99;66.79;100569.13;5075904;27;45435;-72
2022/11/19 03:09:48;;;;;;;;;10.00;8.00;;;;;9.83;66.68;100523.78;5077722;27;45435;-73
2022/11/19 03:12:21;;;;;;;;;6.33;5.00;;;;;9.90;66.55;100522.22;5077931;27;45489;-73
2022/11/19 03:18:31;;;;;;;;;8.33;7.00;;;;;10.17;66.43;100565.72;5077457;28;45323;-71
2022/11/19 03:21:06;;;;;;;;;5.33;4.33;;;;;10.19;66.92;100590.31;5076932;28;45369;-72
2022/11/19 03:23:42;;;;;;;;;4.67;4.67;;;;;9.31;66.56;100430.47;5077700;28;45315;-72
2022/11/19 03:26:23;;;;;;;;;7.00;4.67;;;;;10.26;66.57;100575.53;5077295;27;45718;-73
2022/11/19 03:28:51;;;;;;;;;4.00;4.00;;;;;9.96;65.96;100532.25;5076005;28;45319;-72
2022/11/19 03:31:21;;;;;;;;;4.00;4.00;;;;;9.40;66.02;100412.81;5077738;27;45276;-72
2022/11/19 03:33:50;;;;;;;;;7.33;5.67;;;;;10.38;66.44;100584.97;5078499;27;45593;-71
2022/11/19 03:36:28;;;;;;;;;4.00;4.00;;;;;10.40;65.85;100568.88;5077275;27;46113;-73
2022/11/19 03:38:59;;;;;;;;;5.67;5.67;;;;;10.44;65.97;100579.06;5077340;27;45551;-72
2022/11/19 03:41:27;;;;;;;;;5.00;5.00;;;;;10.45;65.64;100580.75;5077468;28;45438;-71
2022/11/19 03:43:58;;;;;;;;;5.00;5.00;;;;;10.39;65.52;100567.19;5077269;28;45561;-72
2022/11/19 03:46:26;;;;;;;;;5.00;5.00;;;;;10.19;65.46;100535.34;5077040;27;45352;-72
2022/11/19 03:48:53;;;;;;;;;5.33;5.00;;;;;10.38;65.73;100569.00;5077042;27;45576;-73
2022/11/19 03:51:27;;;;;;;;;4.67;4.67;;;;;10.36;65.63;100586.94;5077215;27;45294;-73
2022/11/19 03:53:53;;;;;;;;;5.00;5.00;;;;;10.36;65.74;100561.19;5078966;27;45281;-73
2022/11/19 03:56:23;;;;;;;;;7.00;5.00;;;;;10.49;65.73;100591.91;5078166;27;45165;-71
2022/11/19 03:58:48;;;;;;;;;4.33;3.67;;;;;10.51;65.60;100598.75;5077483;28;45353;-71
2022/11/19 04:01:14;;;;;;;;;5.00;4.67;;;;;10.52;65.62;100592.47;5078715;27;45461;-72
2022/11/19 04:04:34;;;;;;;;;7.67;4.00;;;;;10.41;65.43;100574.06;5077470;28;45304;-71
2022/11/19 04:06:25;;;;;;;;;6.00;4.00;;;;;10.21;65.36;100538.78;5080850;27;45523;-73
2022/11/19 04:08:50;;;;;;;;;6.00;5.00;;;;;10.48;65.22;100600.88;5082278;27;45302;-72
2022/11/19 04:11:16;;;;;;;;;4.67;4.67;;;;;10.50;65.87;100590.94;5082291;27;52833;-72
2022/11/19 04:13:41;;;;;;;;;6.33;5.00;;;;;10.26;66.01;100562.22;5082485;27;45563;-71
2022/11/19 04:16:06;;;;;;;;;6.00;6.00;;;;;10.46;66.01;100587.75;5082438;27;48623;-71
2022/11/19 04:18:32;;;;;;;;;7.67;6.67;;;;;10.20;65.61;100547.66;5100883;27;45431;-72
2022/11/19 04:20:57;;;;;;;;;6.33;4.00;;;;;10.37;65.88;100572.66;5100815;27;45575;-71
2022/11/19 04:23:22;;;;;;;;;5.00;5.00;;;;;10.52;65.52;100592.47;5101113;27;45381;-74
2022/11/19 04:25:48;;;;;;;;;6.00;5.00;;;;;9.42;65.56;100411.72;5101007;27;45787;-73
2022/11/19 04:28:13;;;;;;;;;5.00;4.00;;;;;9.32;65.61;100394.16;5100644;27;45319;-71
2022/11/19 04:30:38;;;;;;;;;3.67;3.67;;;;;10.45;65.76;100591.38;5100885;27;45442;-71
2022/11/19 04:33:04;;;;;;;;;6.33;5.00;;;;;10.56;65.73;100617.75;5082522;27;45700;-71
2022/11/19 04:35:29;;;;;;;;;5.67;5.00;;;;;10.44;65.41;100581.75;5100834;27;46336;-74
2022/11/19 04:37:54;;;;;;;;;5.33;4.33;;;;;10.45;65.24;100586.06;5082078;27;45498;-74
2022/11/19 04:40:20;;;;;;;;;4.33;4.00;;;;;9.45;65.44;100458.38;5100631;27;45315;-72
2022/11/19 04:42:45;;;;;;;;;3.00;3.00;;;;;10.34;65.22;100583.59;5101079;27;45513;-71
2022/11/19 04:45:11;;;;;;;;;3.33;3.33;;;;;9.75;65.22;100486.47;5082600;27;48039;-71
2022/11/19 04:47:36;;;;;;;;;6.00;6.00;;;;;10.15;65.74;100549.94;5101377;27;45403;-73
2022/11/19 04:50:02;;;;;;;;;4.00;4.00;;;;;10.41;65.92;100590.00;5082284;27;45238;-72
2022/11/19 04:52:27;;;;;;;;;5.67;5.00;;;;;10.53;65.36;100615.41;5082757;27;45470;-72
2022/11/19 04:54:52;;;;;;;;;10.67;6.33;;;;;10.38;65.11;100586.78;5101858;27;46187;-72
2022/11/19 04:57:18;;;;;;;;;7.33;5.00;;;;;9.88;65.32;100502.94;5082128;27;45387;-72
2022/11/19 04:59:43;;;;;;;;;2.67;2.67;;;;;10.66;65.62;100626.53;5101825;27;45238;-73
2022/11/19 05:02:09;;;;;;;;;7.67;6.00;;;;;10.66;65.63;100636.34;5101508;27;45286;-71
2022/11/19 05:04:34;;;;;;;;;4.00;4.00;;;;;10.11;65.32;100545.06;5100254;27;46392;-74
2022/11/19 05:06:59;;;;;;;;;15.33;14.00;;;;;10.69;65.29;100622.75;5100067;27;45236;-73
2022/11/19 05:09:24;;;;;;;;;4.67;4.67;;;;;10.60;65.57;100605.00;5100481;27;45228;-71
2022/11/19 05:11:50;;;;;;;;;8.00;5.00;;;;;10.19;65.19;100547.81;5100455;27;45158;-73
2022/11/19 05:14:15;;;;;;;;;6.67;6.67;;;;;10.64;65.07;100625.00;5081511;27;48480;-71
2022/11/19 05:16:40;;;;;;;;;5.67;5.67;;;;;9.80;65.06;100473.59;5081196;27;45214;-72
2022/11/19 05:19:06;;;;;;;;;5.67;4.67;;;;;10.69;65.17;100635.19;5100098;27;45194;-72
2022/11/19 05:21:31;;;;;;;;;9.00;6.67;;;;;10.65;65.30;100638.16;5081866;27;45513;-72
2022/11/19 05:23:57;;;;;;;;;7.00;6.67;;;;;10.14;65.65;100555.38;5081500;27;48619;-72
2022/11/19 05:26:22;;;;;;;;;7.00;7.00;;;;;9.71;65.40;100485.94;5081515;27;45577;-73
2022/11/19 05:28:47;;;;;;;;;5.00;5.00;;;;;10.31;65.94;100583.88;5081132;27;45336;-72
2022/11/19 05:31:13;;;;;;;;;5.67;4.00;;;;;10.56;65.85;100636.38;5099816;27;45499;-72
2022/11/19 05:33:38;;;;;;;;;5.33;5.33;;;;;10.44;65.82;100632.22;5099682;27;46284;-74
2022/11/19 05:36:04;;;;;;;;;7.67;5.00;;;;;10.31;66.40;100613.13;5082033;27;45583;-73
2022/11/19 05:38:30;;;;;;;;;5.67;4.67;;;;;10.20;66.23;100597.31;5081687;27;45431;-73
2022/11/19 05:40:55;;;;;;;;;5.67;5.67;;;;;10.27;66.10;100617.88;5099522;27;45388;-72
2022/11/19 05:43:21;;;;;;;;;7.67;6.67;;;;;9.90;66.57;100553.22;5081057;27;45453;-73
2022/11/19 05:45:46;;;;;;;;;5.00;5.00;;;;;10.39;66.75;100631.81;5080947;27;45407;-73
2022/11/19 05:48:12;;;;;;;;;9.67;6.00;;;;;10.40;67.06;100630.81;5099870;27;45270;-72
2022/11/19 05:50:37;;;;;;;;;5.33;5.33;;;;;10.40;66.45;100630.81;5099700;27;45508;-74
2022/11/19 05:53:04;;;;;;;;;8.67;7.00;;;;;10.40;66.65;100636.13;5099790;27;47034;-73
2022/11/19 05:55:30;;;;;;;;;4.33;4.33;;;;;10.18;66.57;100599.28;5081345;27;45184;-74
2022/11/19 05:57:55;;;;;;;;;8.33;6.00;;;;;10.18;66.46;100591.28;5099301;27;45443;-72
2022/11/19 06:00:20;;;;;;;;;5.67;5.67;;;;;10.26;66.73;100618.03;5099044;27;45606;-73
2022/11/19 06:02:46;;;;;;;;;7.67;5.00;;;;;10.33;67.12;100625.25;5098882;27;45862;-71
2022/11/19 06:05:11;;;;;;;;;7.00;6.67;;;;;10.12;66.65;100595.38;5098892;27;45271;-73
2022/11/19 06:07:37;;;;;;;;;5.33;5.00;;;;;10.16;67.20;100606.56;5098985;27;45352;-73
2022/11/19 06:10:02;;;;;;;;;8.33;7.00;;;;;10.34;66.90;100634.91;5099148;27;45770;-72
2022/11/19 06:12:28;;;;;;;;;6.00;5.67;;;;;9.89;66.91;100584.25;5098718;27;45697;-73
2022/11/19 06:14:54;;;;;;;;;5.67;5.67;;;;;9.87;67.07;100574.78;5098801;27;45501;-71
2022/11/19 06:17:19;;;;;;;;;5.00;5.00;;;;;10.09;67.42;100622.25;5099116;27;45412;-73
2022/11/19 06:19:45;;;;;;;;;6.00;6.00;;;;;10.16;67.34;100633.13;5080520;27;45538;-72
2022/11/19 06:22:10;;;;;;;;;7.33;7.33;;;;;10.18;67.40;100649.75;5098596;27;46477;-72
2022/11/19 06:24:36;;;;;;;;;5.00;5.00;;;;;10.16;67.29;100646.41;5080447;27;45324;-73
2022/11/19 06:27:01;;;;;;;;;5.67;5.67;;;;;10.12;67.60;100637.88;5098910;27;45245;-72
2022/11/19 06:29:26;;;;;;;;;1.00;1.00;;;;;10.13;67.48;100665.28;5079432;27;45339;-73
2022/11/19 06:31:52;;;;;;;;;8.33;7.00;;;;;9.83;67.49;100599.94;5099491;27;45492;-71
2022/11/19 06:34:17;;;;;;;;;6.00;5.00;;;;;10.10;67.67;100649.63;5098940;27;45488;-73
2022/11/19 06:36:42;;;;;;;;;8.00;7.00;;;;;9.99;67.77;100643.50;5080542;27;45272;-72
2022/11/19 06:39:08;;;;;;;;;4.67;4.67;;;;;9.95;67.59;100647.41;5099944;27;45498;-72
2022/11/19 06:41:34;;;;;;;;;7.33;6.67;;;;;9.93;68.16;100653.84;5098329;27;46729;-72
2022/11/19 06:43:59;;;;;;;;;5.00;4.00;;;;;10.04;68.08;100667.81;5099122;27;45297;-72
2022/11/19 06:46:24;;;;;;;;;7.33;7.00;;;;;10.07;67.81;100670.19;5099122;27;45401;-72
2022/11/19 06:48:50;;;;;;;;;7.00;6.67;;;;;10.00;68.47;100660.25;5099357;27;45378;-73
2022/11/19 06:51:15;;;;;;;;;8.33;8.33;;;;;10.13;67.91;100681.22;5099413;27;46740;-71
2022/11/19 06:53:40;;;;;;;;;9.00;6.00;;;;;9.69;68.15;100610.00;5080300;27;46014;-72
2022/11/19 06:56:07;;;;;;;;;7.33;7.33;;;;;9.89;67.90;100634.72;5100094;27;45481;-74
2022/11/19 06:58:33;;;;;;;;;5.67;5.67;;;;;9.89;67.92;100637.38;5098697;27;45451;-72
2022/11/19 07:00:58;;;;;;;;;6.00;6.00;;;;;9.88;67.57;100630.38;5079668;27;47223;-74
2022/11/19 07:03:24;;;;;;;;;13.33;11.33;;;;;10.02;67.91;100659.16;5098047;27;45537;-73
2022/11/19 07:05:54;;;;;;;;;6.33;6.00;;;;;10.06;67.80;100655.25;5097962;27;45497;-74
2022/11/19 07:08:20;;;;;;;;;4.33;4.33;;;;;10.16;67.68;100670.31;5098082;27;45256;-72
2022/11/19 07:10:45;;;;;;;;;10.67;9.00;;;;;9.68;67.40;100588.91;5097653;27;46789;-73
2022/11/19 07:13:10;;;;;;;;;14.33;13.33;;;;;10.11;67.41;100656.63;5098188;27;45870;-71
2022/11/19 07:15:36;;;;;;;;;15.67;14.33;;;;;10.21;67.52;100681.38;5098110;27;45233;-72
2022/11/19 07:18:01;;;;;;;;;22.00;16.00;;;;;10.42;67.27;100707.78;5079809;27;45521;-72
2022/11/19 07:20:27;;;;;;;;;14.00;12.33;;;;;10.14;67.22;100656.34;5098025;27;46064;-74
2022/11/19 07:22:53;;;;;;;;;10.33;9.00;;;;;10.47;67.24;100730.28;5097900;27;45371;-73
2022/11/19 07:25:19;;;;;;;;;7.00;5.33;;;;;10.49;67.46;100719.50;5079442;27;45586;-73
2022/11/19 07:27:47;;;;;;;;;8.67;7.33;;;;;10.35;67.24;100695.06;5098038;27;45400;-73
2022/11/19 07:30:14;;;;;;;;;15.00;14.00;;;;;9.79;67.09;100603.84;5097199;27;46119;-73
2022/11/19 07:32:41;;;;;;;;;8.00;8.00;;;;;10.58;67.07;100721.28;5079027;27;45505;-72
2022/11/19 07:35:08;;;;;;;;;11.00;8.33;;;;;10.57;66.86;100717.78;5097381;27;45298;-74
2022/11/19 07:37:34;;;;;;;;;10.33;9.33;;;;;10.62;66.74;100726.19;5097576;27;45348;-73
2022/11/19 07:39:59;;;;;;;;;9.33;7.67;;;;;10.34;66.60;100684.56;5098852;27;45670;-73
2022/11/19 07:45:08;;;;;;;;;9.33;8.00;;;;;10.24;66.22;100673.97;5101316;27;45528;-73
2022/11/19 07:47:34;;;;;;;;;9.33;8.00;;;;;10.69;66.18;100747.72;5101552;27;45434;-73
2022/11/19 07:50:00;;;;;;;;;10.00;10.00;;;;;10.59;66.40;100737.09;5101196;27;46189;-73
2022/11/19 07:52:25;;;;;;;;;7.00;5.33;;;;;10.73;66.58;100737.63;5101636;27;45434;-71
2022/11/19 07:54:51;;;;;;;;;8.33;7.33;;;;;8.51;66.34;100399.00;5101858;27;45370;-70
2022/11/19 07:57:16;;;;;;;;;10.00;10.00;;;;;10.73;66.27;100748.25;5103041;27;45659;-74
2022/11/19 07:59:41;;;;;;;;;14.67;14.33;;;;;10.00;66.03;100623.91;5097449;27;47620;-73
2022/11/19 08:02:10;;;;;;;;;9.33;8.00;;;;;10.51;66.26;100713.06;5100675;27;45406;-72
2022/11/19 08:04:35;;;;;;;;;10.00;10.00;;;;;10.86;66.46;100772.72;5116914;27;45620;-73
2022/11/19 08:07:01;;;;;;;;;11.00;9.67;;;;;10.85;66.29;100768.38;5102927;27;45671;-73
2022/11/19 08:09:26;;;;;;;;;6.67;6.67;;;;;10.69;66.11;100720.28;5087587;27;47357;-73
2022/11/19 08:11:51;;;;;;;;;13.67;9.00;;;;;10.96;65.64;100779.66;5108064;27;50694;-72
2022/11/19 08:14:17;;;;;;;;;10.00;8.00;;;;;10.53;65.78;100705.78;5102812;27;45628;-75
2022/11/19 08:19:26;;;;;;;;;5.67;5.00;;;;;11.02;65.19;100783.59;5103098;27;45492;-74
2022/11/19 08:21:54;;;;;;;;;9.33;9.33;;;;;11.09;65.58;100794.47;5090231;27;46270;-75
2022/11/19 08:24:20;;;;;;;;;7.33;7.00;;;;;10.85;65.05;100741.78;5100579;27;45466;-73
2022/11/19 08:26:46;;;;;;;;;9.00;9.00;;;;;11.09;65.30;100782.00;5109757;27;45500;-72
2022/11/19 08:29:13;;;;;;;;;6.00;6.00;;;;;11.24;65.21;100812.47;5088090;27;47480;-74
2022/11/19 08:31:40;;;;;;;;;7.67;6.67;;;;;11.31;64.83;100807.41;5081954;27;46581;-74
2022/11/19 08:34:05;;;;;;;;;8.33;7.33;;;;;10.31;64.60;100631.72;5099396;27;45327;-74
2022/11/19 08:36:31;;;;;;;;;9.33;7.00;;;;;11.14;64.68;100773.56;5082216;27;45564;-73
2022/11/19 08:38:58;;;;;;;;;8.33;6.00;;;;;11.40;64.30;100803.84;5081646;27;45477;-73
2022/11/19 08:44:07;;;;;;;;;7.00;6.00;;;;;11.14;64.02;100758.44;5100233;27;45473;-72
2022/11/19 08:46:33;;;;;;;;;9.67;6.00;;;;;11.19;63.97;100764.16;5095640;27;45460;-71
2022/11/19 08:48:58;;;;;;;;;6.67;6.67;;;;;11.17;63.91;100754.66;5105889;27;48293;-72
2022/11/19 08:51:23;;;;;;;;;7.00;6.00;;;;;11.37;63.71;100772.19;5098598;27;45375;-73
2022/11/19 08:53:51;;;;;;;;;7.33;7.33;;;;;11.61;63.66;100819.56;5080667;27;45993;-72
2022/11/19 08:56:17;;;;;;;;;7.67;6.00;;;;;11.16;63.74;100740.50;5082018;27;45409;-72
2022/11/19 08:58:42;;;;;;;;;4.00;4.00;;;;;11.48;63.99;100795.13;5106533;27;46142;-72
2022/11/19 09:01:09;;;;;;;;;4.33;4.33;;;;;11.67;63.47;100840.28;5119435;27;45336;-72
2022/11/19 09:03:35;;;;;;;;;8.67;7.00;;;;;11.54;63.56;100795.38;5108332;27;45544;-72
2022/11/19 09:06:00;;;;;;;;;8.67;7.67;;;;;11.22;63.81;100745.25;5082675;27;45272;-72
2022/11/19 09:08:26;;;;;;;;;6.00;5.00;;;;;11.67;63.50;100795.03;5106045;27;46010;-78
2022/11/19 09:10:51;;;;;;;;;9.67;9.67;;;;;11.59;63.57;100776.28;5108961;27;45438;-74
2022/11/19 09:13:16;;;;;;;;;8.00;8.00;;;;;11.93;63.29;100831.59;5100000;27;45762;-74
2022/11/19 09:15:42;;;;;;;;;7.33;7.33;;;;;11.92;63.25;100833.44;5099636;27;45231;-74
2022/11/19 09:18:07;;;;;;;;;7.00;4.67;;;;;12.02;63.33;100830.72;5099483;27;46275;-74
2022/11/19 09:20:34;;;;;;;;;5.00;5.00;;;;;11.86;63.00;100810.91;5105044;27;45545;-72
2022/11/19 09:23:00;;;;;;;;;8.00;8.00;;;;;11.67;62.70;100772.88;5096315;27;45529;-74
2022/11/19 09:25:25;;;;;;;;;7.33;5.00;;;;;11.77;62.59;100782.47;5119344;27;45314;-74
2022/11/19 09:27:50;;;;;;;;;8.00;6.00;;;;;11.59;62.63;100747.81;5108669;27;45604;-74
2022/11/19 09:30:16;;;;;;;;;10.33;8.33;;;;;12.10;62.82;100854.78;5108676;27;45490;-74
2022/11/19 09:32:41;;;;;;;;;8.00;5.67;;;;;11.99;62.61;100817.69;5112632;27;45448;-74
2022/11/19 09:35:07;;;;;;;;;5.00;5.00;;;;;12.13;62.39;100830.47;5099908;27;45333;-74
2022/11/19 09:37:34;;;;;;;;;9.00;9.00;;;;;12.21;62.12;100833.22;5115172;27;46827;-73
2022/11/19 09:40:00;;;;;;;;;6.33;5.33;;;;;12.29;62.08;100837.81;5107183;27;45251;-73
2022/11/19 09:42:40;;;;;;;;;8.33;6.67;;;;;12.27;61.56;100850.44;5107756;27;45423;-73
2022/11/19 09:45:16;;;;;;;;;2.33;2.33;;;;;12.23;61.42;100820.59;5103517;27;45507;-73
2022/11/19 09:48:05;;;;;;;;;6.67;6.67;;;;;12.39;61.27;100842.03;5102615;27;46364;-77
2022/11/19 09:50:45;;;;;;;;;6.33;6.33;;;;;11.88;61.49;100757.47;5100197;27;45354;-75
2022/11/19 09:53:16;;;;;;;;;12.33;8.33;;;;;12.46;61.34;100858.28;5093267;27;45473;-73
2022/11/19 09:55:44;;;;;;;;;7.33;6.33;;;;;10.86;61.29;100589.22;5092745;27;45524;-76
2022/11/19 09:58:36;;;;;;;;;5.33;5.33;;;;;12.42;60.87;100846.25;5100749;27;48509;-73
2022/11/19 10:01:02;;;;;;;;;6.33;5.33;;;;;11.54;61.22;100694.19;5119314;27;45259;-75
2022/11/19 10:03:28;;;;;;;;;5.67;5.33;;;;;11.67;61.06;100704.47;5119433;27;45551;-78
2022/11/19 10:06:11;;;;;;;;;8.00;6.00;;;;;12.56;61.01;100842.19;5101360;27;45335;-76
2022/11/19 10:08:58;;;;;;;;;9.00;8.00;;;;;12.66;60.80;100870.47;5098226;27;46087;-77
2022/11/19 10:11:34;;;;;;;;;11.67;7.00;;;;;12.26;60.42;100772.31;5105535;27;45517;-77
2022/11/19 10:14:31;;;;;;;;;8.33;6.67;;;;;12.17;60.17;100760.72;5079388;27;45644;-76
2022/11/19 10:17:20;;;;;;;;;5.00;5.00;;;;;12.84;60.25;100867.78;5091959;27;45518;-72
2022/11/19 10:20:04;;;;;;;;;10.00;8.00;;;;;12.95;59.86;100853.31;5082113;27;47416;-76
2022/11/19 10:22:54;;;;;;;;;7.00;5.67;;;;;12.30;60.20;100731.00;5091917;27;45681;-80
2022/11/19 10:25:27;;;;;;;;;9.67;8.67;;;;;12.21;59.76;100707.09;5077806;27;46347;-80
2022/11/19 10:27:59;;;;;;;;;6.00;6.00;;;;;12.68;59.48;100785.78;5092139;27;45651;-75
2022/11/19 10:30:27;;;;;;;;;7.00;7.00;;;;;12.47;59.46;100727.47;5119773;27;46332;-75
2022/11/19 10:33:06;;;;;;;;;8.33;7.00;;;;;13.27;59.19;100837.53;5101004;27;45607;-76
2022/11/19 10:35:37;;;;;;;;;6.00;6.00;;;;;13.31;58.86;100838.88;5111496;27;46183;-80
2022/11/19 10:38:14;;;;;;;;;9.67;9.67;;;;;13.30;59.07;100836.38;5086925;27;45321;-74
2022/11/19 10:40:43;;;;;;;;;10.33;8.00;;;;;13.21;58.78;100821.31;5100189;27;46383;-77
2022/11/19 10:43:23;;;;;;;;;6.33;6.33;;;;;13.35;58.75;100839.41;5107252;27;45477;-75
2022/11/19 10:45:49;;;;;;;;;6.00;6.00;;;;;13.27;58.66;100823.34;5099147;27;45502;-76
2022/11/19 10:48:21;;;;;;;;;9.00;8.33;;;;;13.16;58.27;100808.41;5098506;27;45311;-75
2022/11/19 10:50:47;;;;;;;;;13.33;12.33;;;;;13.32;58.66;100821.03;5097843;27;45896;-77
2022/11/19 10:53:15;;;;;;;;;6.67;6.67;;;;;13.06;58.34;100784.50;5111982;27;45444;-77
2022/11/19 10:55:46;;;;;;;;;9.00;8.00;;;;;13.33;58.33;100833.38;5103114;27;45314;-74
2022/11/19 10:58:27;;;;;;;;;6.33;6.33;;;;;13.31;58.57;100832.72;5100886;27;45213;-76
2022/11/19 11:00:54;;;;;;;;;9.00;9.00;;;;;13.07;58.65;100820.88;5100026;27;48696;-75
2022/11/19 11:03:29;;;;;;;;;14.33;12.67;;;;;12.67;58.70;100757.44;5119010;27;45269;-77
2022/11/19 11:06:05;;;;;;;;;15.67;14.00;;;;;12.95;59.27;100802.63;5119367;27;45193;-75
2022/11/19 11:08:31;;;;;;;;;21.33;16.67;;;;;13.03;59.05;100808.84;5119241;27;45273;-75
2022/11/19 11:10:58;;;;;;;;;15.00;14.00;;;;;13.15;58.96;100838.75;5119239;27;45346;-76
2022/11/19 11:16:22;;;;;;;;;12.33;11.33;;;;;13.26;58.85;100862.56;5101965;27;47164;-75
2022/11/19 11:18:51;;;;;;;;;7.00;7.00;;;;;13.08;58.63;100805.69;5091700;27;45248;-75
2022/11/19 11:21:28;;;;;;;;;8.33;8.00;;;;;12.91;58.32;100767.41;5113629;27;46337;-75
2022/11/19 11:23:55;;;;;;;;;6.67;6.33;;;;;13.21;58.71;100806.13;5098302;27;45473;-75
2022/11/19 11:26:24;;;;;;;;;10.33;8.00;;;;;12.41;57.73;100661.44;5084706;27;45538;-74
2022/11/19 11:29:07;;;;;;;;;8.67;8.00;;;;;13.40;58.02;100800.53;5096389;27;45868;-76
2022/11/19 11:31:34;;;;;;;;;9.00;9.00;;;;;13.50;57.78;100805.75;5099503;27;45741;-74
2022/11/19 11:34:01;;;;;;;;;10.33;6.00;;;;;13.21;57.63;100773.25;5095140;27;45523;-72
2022/11/19 11:36:29;;;;;;;;;8.67;8.00;;;;;13.65;57.53;100833.53;5119601;27;45557;-74
2022/11/19 11:38:56;;;;;;;;;11.00;11.00;;;;;12.73;57.56;100668.78;5099714;27;45661;-73
2022/11/19 11:41:32;;;;;;;;;11.00;9.67;;;;;13.46;57.50;100776.88;5115299;27;46576;-73
2022/11/19 11:44:01;;;;;;;;;10.33;9.00;;;;;13.65;57.05;100801.47;5103293;27;45298;-75
2022/11/19 11:46:49;;;;;;;;;7.67;7.33;;;;;13.76;57.06;100827.03;5080051;27;45246;-74
2022/11/19 11:49:35;;;;;;;;;10.67;10.67;;;;;13.77;57.13;100823.38;5079250;27;45560;-73
2022/11/19 11:52:09;;;;;;;;;6.33;6.00;;;;;13.75;57.01;100827.22;5097701;27;46599;-74